createdAt,value
2019-03-22T09:21:12.724Z,42.85
2019-03-22T09:21:17.923Z,40.75
2019-03-22T09:21:23.090Z,40.06
2019-03-22T09:22:21.455Z,39.04
2019-03-22T09:22:26.642Z,38.84
2019-03-22T09:22:31.824Z,38.74
2019-03-22T09:44:59.371Z,40.72
2019-03-22T09:45:04.641Z,41.02
2019-03-22T09:45:09.817Z,39.53
2019-03-22T09:45:14.997Z,38.53
2019-03-22T09:45:20.194Z,39.01
2019-03-22T09:45:25.366Z,39.61
2019-03-22T09:45:56.249Z,39.80
2019-03-22T09:46:01.531Z,39.70
2019-03-22T09:46:53.722Z,37.92
2019-03-22T09:46:59.040Z,37.81
2019-03-22T09:47:04.220Z,37.92
2019-03-22T09:47:09.399Z,37.92
2019-03-22T09:47:16.538Z,38.21
2019-03-22T09:47:39.932Z,37.51
2019-03-22T09:47:45.212Z,37.71
2019-03-22T09:47:50.423Z,38.01
2019-03-22T09:47:55.660Z,37.71
2019-03-22T09:48:00.861Z,37.51
2019-03-22T09:48:06.286Z,37.32
2019-03-22T09:48:11.580Z,37.21
2019-03-22T09:48:16.815Z,37.21
2019-03-22T09:48:22.007Z,37.12
2019-03-22T09:48:27.186Z,37.12
2019-03-22T09:48:32.430Z,37.12
2019-03-22T09:48:37.641Z,37.12
2019-03-22T09:48:42.965Z,37.21
2019-03-22T09:48:48.209Z,37.32
2019-03-22T09:48:53.410Z,37.21
2019-03-22T09:48:58.605Z,37.43
2019-03-22T09:49:03.793Z,37.62
2019-03-22T09:49:08.983Z,37.63
2019-03-22T09:49:14.165Z,37.73
2019-03-22T09:49:19.470Z,37.83
2019-03-22T09:49:24.659Z,37.93
2019-03-22T09:49:29.875Z,37.93
2019-03-22T09:49:35.069Z,37.93
2019-03-22T09:49:40.257Z,39.53
2019-03-22T09:49:45.535Z,40.32
2019-03-22T09:49:51.352Z,40.22
2019-03-22T09:49:56.649Z,40.22
2019-03-22T09:50:01.829Z,39.23
2019-03-22T09:50:07.019Z,38.23
2019-03-22T09:50:12.248Z,38.03
2019-03-22T09:50:17.481Z,38.23
2019-03-22T09:50:22.706Z,38.73
2019-03-22T09:50:27.990Z,39.12
2019-03-22T09:50:33.180Z,39.12
2019-03-22T09:50:38.370Z,39.42
2019-03-22T09:50:43.549Z,39.83
2019-03-22T09:50:48.800Z,40.82
2019-03-22T09:50:54.034Z,41.09
2019-03-22T09:50:59.253Z,40.70
2019-03-22T09:51:04.441Z,39.90
2019-03-22T09:51:09.669Z,39.11
2019-03-22T09:51:14.857Z,38.51
2019-03-22T09:51:20.045Z,38.11
2019-03-22T09:51:25.288Z,37.92
2019-03-22T09:51:30.487Z,37.92
2019-03-22T09:51:35.677Z,38.11
2019-03-22T09:51:40.862Z,38.01
2019-03-22T09:51:46.043Z,37.90
2019-03-22T09:51:51.285Z,38.09
2019-03-22T09:51:56.543Z,38.20
2019-03-22T09:52:01.741Z,38.20
2019-03-22T09:52:06.930Z,38.09
2019-03-22T09:52:12.137Z,38.20
2019-03-22T09:52:17.355Z,38.39
2019-03-22T09:52:22.556Z,38.09
2019-03-22T09:52:27.747Z,37.77
2019-03-22T09:52:33.796Z,37.68
2019-03-22T09:52:39.131Z,37.77
2019-03-22T09:52:44.328Z,37.68
2019-03-22T09:52:49.603Z,37.38
2019-03-22T09:52:54.823Z,37.28
2019-03-22T09:53:00.164Z,37.38
2019-03-22T09:53:05.461Z,37.38
2019-03-22T09:53:10.664Z,37.38
2019-03-22T09:53:15.943Z,37.28
2019-03-22T09:53:21.136Z,37.16
2019-03-22T09:53:26.322Z,37.16
2019-03-22T09:53:31.510Z,37.06
2019-03-22T09:53:36.743Z,36.77
2019-03-22T09:53:41.970Z,36.87
2019-03-22T09:53:47.166Z,37.16
2019-03-22T09:53:52.390Z,37.16
2019-03-22T09:53:57.592Z,37.26
2019-03-22T09:54:02.805Z,37.36
2019-03-22T09:54:07.988Z,37.36
2019-03-22T09:54:13.176Z,37.36
2019-03-22T09:54:18.362Z,37.26
2019-03-22T09:54:23.548Z,37.06
2019-03-22T09:54:28.770Z,36.87
2019-03-22T09:54:34.012Z,36.77
2019-03-22T09:54:39.214Z,36.57
2019-03-22T09:54:44.403Z,36.57
2019-03-22T09:54:49.574Z,36.57
2019-03-22T09:54:54.841Z,36.66
2019-03-22T09:55:12.755Z,36.77
2019-03-22T09:55:14.175Z,36.87
2019-03-22T09:55:19.772Z,36.77
2019-03-22T09:55:24.959Z,36.87
2019-03-22T09:55:30.173Z,36.96
2019-03-22T09:55:35.429Z,37.06
2019-03-22T09:55:40.642Z,36.96
2019-03-22T09:55:45.813Z,36.96
2019-03-22T09:55:51.002Z,36.96
2019-03-22T09:55:56.205Z,37.06
2019-03-22T09:56:01.393Z,37.18
2019-03-22T09:56:06.592Z,37.28
2019-03-22T09:56:11.835Z,37.28
2019-03-22T09:56:17.071Z,37.28
2019-03-22T09:56:22.310Z,37.28
2019-03-22T09:56:27.547Z,37.38
2019-03-22T09:56:32.743Z,37.48
2019-03-22T09:56:46.784Z,37.38
2019-03-22T09:56:49.093Z,37.28
2019-03-22T09:56:54.401Z,37.28
2019-03-22T09:56:59.603Z,37.98
2019-03-22T09:57:04.861Z,37.77
2019-03-22T09:57:10.094Z,37.28
2019-03-22T09:57:15.335Z,37.08
2019-03-22T09:57:20.557Z,36.98
2019-03-22T09:57:25.866Z,36.98
2019-03-22T09:57:31.071Z,37.18
2019-03-22T09:57:36.273Z,37.18
2019-03-22T09:57:41.472Z,37.28
2019-03-22T09:57:49.313Z,37.28
2019-03-22T09:57:54.795Z,37.18
2019-03-22T09:58:00.003Z,37.08
2019-03-22T09:58:05.235Z,36.88
2019-03-22T09:58:10.522Z,36.88
2019-03-22T09:58:15.714Z,37.18
2019-03-22T09:58:20.952Z,37.77
2019-03-22T09:58:26.140Z,37.68
2019-03-22T09:58:31.346Z,37.38
2019-03-22T09:58:36.660Z,37.30
2019-03-22T09:58:41.927Z,37.20
2019-03-22T09:58:47.150Z,37.40
2019-03-22T09:58:52.341Z,38.09
2019-03-22T09:58:57.546Z,38.09
2019-03-22T09:59:02.732Z,37.79
2019-03-22T09:59:07.965Z,37.60
2019-03-22T09:59:13.159Z,37.60
2019-03-22T09:59:18.343Z,37.49
2019-03-22T09:59:23.538Z,37.40
2019-03-22T09:59:28.775Z,37.30
2019-03-22T09:59:33.979Z,37.20
2019-03-22T09:59:39.219Z,37.10
2019-03-22T09:59:44.501Z,37.10
2019-03-22T09:59:49.760Z,37.10
2019-03-22T09:59:54.959Z,37.10
2019-03-22T10:00:00.353Z,37.10
2019-03-22T10:00:05.581Z,37.20
2019-03-22T10:00:10.817Z,37.20
2019-03-22T10:00:16.010Z,37.49
2019-03-22T10:00:21.201Z,37.49
2019-03-22T10:00:26.442Z,37.40
2019-03-22T10:00:31.645Z,37.40
2019-03-22T10:00:36.842Z,37.40
2019-03-22T10:00:42.914Z,37.30
2019-03-22T10:00:48.698Z,37.40
2019-03-22T10:00:54.232Z,37.30
2019-03-22T10:00:59.591Z,37.30
2019-03-22T10:01:04.984Z,37.30
2019-03-22T10:01:22.900Z,37.40
2019-03-22T10:01:23.944Z,38.09
2019-03-22T10:01:29.460Z,37.60
2019-03-22T10:01:34.643Z,37.10
2019-03-22T10:01:39.829Z,37.00
2019-03-22T10:01:45.120Z,38.79
2019-03-22T10:01:50.318Z,37.99
2019-03-22T10:01:55.540Z,37.60
2019-03-22T10:02:00.777Z,37.60
2019-03-22T10:02:06.004Z,37.70
2019-03-22T10:02:11.201Z,37.99
2019-03-22T10:02:16.400Z,37.90
2019-03-22T10:02:21.612Z,37.70
2019-03-22T10:02:26.849Z,37.98
2019-03-22T10:02:32.067Z,37.98
2019-03-22T10:02:37.247Z,37.77
2019-03-22T10:02:42.427Z,37.58
2019-03-22T10:02:47.622Z,37.18
2019-03-22T10:02:52.837Z,36.98
2019-03-22T10:02:58.053Z,36.68
2019-03-22T10:03:03.272Z,36.68
2019-03-22T10:03:08.487Z,37.28
2019-03-22T10:03:13.680Z,37.98
2019-03-22T10:03:18.897Z,37.48
2019-03-22T10:03:24.112Z,36.98
2019-03-22T10:03:29.292Z,36.58
2019-03-22T10:03:34.512Z,36.49
2019-03-22T10:03:42.479Z,36.58
2019-03-22T10:03:47.854Z,37.18
2019-03-22T13:50:52.799Z,23.86
2019-03-22T13:50:57.923Z,23.97
2019-03-22T13:51:03.047Z,23.87
2019-03-22T13:51:08.184Z,23.78
2019-03-22T13:51:13.404Z,23.68
2019-03-22T13:51:18.571Z,23.90
2019-03-22T13:51:23.743Z,23.99
2019-03-22T13:51:28.937Z,24.20
2019-03-22T13:51:34.056Z,24.40
2019-03-22T13:51:39.179Z,24.51
2019-03-22T13:51:44.304Z,24.62
2019-03-22T13:51:49.426Z,24.73
2019-03-22T13:51:54.583Z,24.82
2019-03-22T13:51:59.729Z,24.92
2019-03-22T13:52:04.851Z,24.84
2019-03-22T13:52:09.988Z,24.84
2019-03-22T13:52:15.115Z,24.93
2019-03-22T13:52:20.241Z,25.04
2019-03-22T13:52:25.369Z,25.05
2019-03-22T13:52:30.494Z,25.15
2019-03-22T13:52:35.619Z,25.15
2019-03-22T13:52:40.749Z,25.24
2019-03-22T13:52:45.887Z,25.26
2019-03-22T13:52:51.081Z,25.16
2019-03-22T13:52:56.292Z,25.26
2019-03-22T13:53:01.419Z,25.26
2019-03-22T13:53:06.563Z,25.26
2019-03-22T13:53:11.697Z,25.46
2019-03-22T13:53:16.833Z,25.36
2019-03-22T13:53:21.959Z,25.57
2019-03-22T13:53:27.091Z,25.57
2019-03-22T13:53:32.217Z,25.37
2019-03-22T13:53:37.341Z,25.17
2019-03-22T13:53:42.464Z,24.97
2019-03-22T13:53:47.594Z,25.27
2019-03-22T13:53:52.728Z,25.27
2019-03-22T13:53:57.927Z,25.37
2019-03-22T13:54:03.061Z,25.67
2019-03-22T13:54:08.234Z,25.57
2019-03-22T13:54:13.373Z,25.38
2019-03-22T13:54:18.532Z,25.38
2019-03-22T13:54:23.653Z,25.28
2019-03-22T13:54:28.782Z,25.38
2019-03-22T13:54:33.901Z,25.28
2019-03-22T13:54:39.032Z,25.28
2019-03-22T13:54:44.160Z,25.38
2019-03-22T13:54:49.292Z,25.59
2019-03-22T13:54:54.417Z,25.59
2019-03-22T13:54:59.582Z,25.59
2019-03-22T13:55:04.733Z,25.48
2019-03-22T13:55:09.855Z,25.38
2019-03-22T13:55:14.979Z,25.38
2019-03-22T13:55:20.111Z,25.68
2019-03-22T13:55:25.234Z,25.68
2019-03-22T13:55:30.360Z,25.89
2019-03-22T13:55:35.523Z,25.98
2019-03-22T13:55:40.690Z,26.09
2019-03-22T13:55:45.846Z,26.29
2019-03-22T13:55:50.966Z,26.50
2019-03-22T13:55:56.146Z,25.90
2019-03-22T13:56:01.305Z,25.79
2019-03-22T13:56:06.428Z,25.70
2019-03-22T13:56:11.549Z,25.70
2019-03-22T13:56:16.696Z,25.70
2019-03-22T13:56:21.825Z,25.70
2019-03-22T13:56:26.950Z,25.70
2019-03-22T13:56:32.079Z,25.70
2019-03-22T13:56:37.221Z,25.90
2019-03-22T13:56:42.346Z,26.20
2019-03-22T13:56:47.480Z,26.40
2019-03-22T13:56:52.605Z,26.20
2019-03-22T13:56:57.739Z,25.79
2019-03-22T13:57:02.973Z,25.60
2019-03-22T13:57:08.153Z,25.79
2019-03-22T13:57:13.280Z,25.79
2019-03-22T13:57:18.399Z,25.99
2019-03-22T13:57:23.530Z,26.29
2019-03-22T13:57:28.664Z,26.70
2019-03-22T13:57:33.791Z,26.79
2019-03-22T13:57:38.910Z,26.70
2019-03-22T13:57:44.033Z,26.59
2019-03-22T13:57:49.154Z,26.70
2019-03-22T13:57:54.270Z,26.89
2019-03-22T13:57:59.399Z,26.89
2019-03-22T13:58:04.586Z,27.00
2019-03-22T13:58:09.709Z,26.89
2019-03-22T13:58:14.831Z,26.79
2019-03-22T13:58:19.953Z,26.70
2019-03-22T13:58:25.115Z,26.50
2019-03-22T13:58:30.315Z,26.20
2019-03-22T13:58:35.478Z,26.09
2019-03-22T13:58:40.614Z,26.20
2019-03-22T13:58:45.737Z,25.90
2019-03-22T13:58:50.868Z,25.90
2019-03-22T13:58:56.032Z,25.79
2019-03-22T13:59:01.158Z,25.79
2019-03-22T13:59:06.315Z,25.70
2019-03-22T13:59:11.437Z,25.79
2019-03-22T13:59:16.568Z,25.79
2019-03-22T13:59:21.689Z,25.60
2019-03-22T13:59:26.813Z,25.60
2019-03-22T13:59:31.933Z,25.49
2019-03-22T13:59:37.050Z,25.29
2019-03-22T13:59:42.173Z,25.29
2019-03-22T13:59:47.301Z,25.40
